sensor_id;sensor_type;location;lat;lon;timestamp;pressure;altitude;pressure_sealevel;temperature;humidity
52343;BME280;38277;51.972;4.624;2023-03-04T00:04:16;102940.0;;;7.7;63.5
52343;BME280;38277;51.972;4.624;2023-03-04T00:09:04;102940.0;;;7.7;63.5
52343;BME280;38277;51.972;4.624;2023-03-04T00:13:15;102950.0;;;7.7;63.5
52343;BME280;38277;51.972;4.624;2023-03-04T00:18:11;102950.0;;;7.7;63.5
52343;BME280;38277;51.972;4.624;2023-03-04T00:23:07;102950.0;;;7.7;63.5
52343;BME280;38277;51.972;4.624;2023-03-04T00:29:42;102950.0;;;7.7;64.0
52343;BME280;38277;51.972;4.624;2023-03-04T00:33:00;102950.0;;;7.7;64.0
52343;BME280;38277;51.972;4.624;2023-03-04T00:40:10;102940.0;;;7.7;64.0
52343;BME280;38277;51.972;4.624;2023-03-04T00:45:06;102950.0;;;7.7;64.0
52343;BME280;38277;51.972;4.624;2023-03-04T00:50:03;102940.0;;;7.7;64.5
52343;BME280;38277;51.972;4.624;2023-03-04T00:54:58;102940.0;;;7.7;64.5
52343;BME280;38277;51.972;4.624;2023-03-04T01:02:56;102940.0;;;7.7;64.5
52343;BME280;38277;51.972;4.624;2023-03-04T01:07:52;102930.0;;;7.7;64.5
52343;BME280;38277;51.972;4.624;2023-03-04T01:14:27;102940.0;;;7.7;65.0
52343;BME280;38277;51.972;4.624;2023-03-04T01:17:44;102940.0;;;7.6;65.0
52343;BME280;38277;51.972;4.624;2023-03-04T01:25:23;102930.0;;;7.6;65.0
52343;BME280;38277;51.972;4.624;2023-03-04T01:30:19;102930.0;;;7.7;65.0
52343;BME280;38277;51.972;4.624;2023-03-04T01:34:13;102920.0;;;7.7;65.0
52343;BME280;38277;51.972;4.624;2023-03-04T01:39:02;102910.0;;;7.7;65.0
52343;BME280;38277;51.972;4.624;2023-03-04T01:43:15;102920.0;;;7.7;65.0
52343;BME280;38277;51.972;4.624;2023-03-04T01:47:46;102910.0;;;7.7;65.5
52343;BME280;38277;51.972;4.624;2023-03-04T01:52:20;102910.0;;;7.7;65.5
52343;BME280;38277;51.972;4.624;2023-03-04T01:57:06;102900.0;;;7.6;65.5
52343;BME280;38277;51.972;4.624;2023-03-04T02:01:29;102890.0;;;7.6;65.5
52343;BME280;38277;51.972;4.624;2023-03-04T02:05:53;102880.0;;;7.6;65.5
52343;BME280;38277;51.972;4.624;2023-03-04T02:10:31;102880.0;;;7.6;65.0
52343;BME280;38277;51.972;4.624;2023-03-04T02:14:41;102880.0;;;7.6;65.0
52343;BME280;38277;51.972;4.624;2023-03-04T02:19:31;102870.0;;;7.6;65.0
52343;BME280;38277;51.972;4.624;2023-03-04T02:28:18;102870.0;;;7.6;64.5
52343;BME280;38277;51.972;4.624;2023-03-04T02:32:40;102870.0;;;7.6;64.0
52343;BME280;38277;51.972;4.624;2023-03-04T02:37:32;102860.0;;;7.5;63.5
52343;BME280;38277;51.972;4.624;2023-03-04T02:42:02;102850.0;;;7.5;63.0
52343;BME280;38277;51.972;4.624;2023-03-04T02:46:17;102850.0;;;7.5;63.0
52343;BME280;38277;51.972;4.624;2023-03-04T02:51:01;102840.0;;;7.5;63.0
52343;BME280;38277;51.972;4.624;2023-03-04T02:55:28;102840.0;;;7.6;63.0
52343;BME280;38277;51.972;4.624;2023-03-04T03:04:10;102830.0;;;7.6;63.0
52343;BME280;38277;51.972;4.624;2023-03-04T03:09:05;102840.0;;;7.6;63.0
52343;BME280;38277;51.972;4.624;2023-03-04T03:13:27;102840.0;;;7.6;63.0
52343;BME280;38277;51.972;4.624;2023-03-04T03:18:03;102830.0;;;7.6;63.0
52343;BME280;38277;51.972;4.624;2023-03-04T03:22:19;102840.0;;;7.6;63.5
52343;BME280;38277;51.972;4.624;2023-03-04T03:26:51;102830.0;;;7.6;64.0
52343;BME280;38277;51.972;4.624;2023-03-04T03:31:21;102830.0;;;7.5;64.5
52343;BME280;38277;51.972;4.624;2023-03-04T03:35:56;102830.0;;;7.5;64.5
52343;BME280;38277;51.972;4.624;2023-03-04T03:40:22;102830.0;;;7.5;65.0
52343;BME280;38277;51.972;4.624;2023-03-04T03:44:45;102840.0;;;7.5;64.5
52343;BME280;38277;51.972;4.624;2023-03-04T03:49:15;102840.0;;;7.5;64.0
52343;BME280;38277;51.972;4.624;2023-03-04T03:53:53;102840.0;;;7.5;64.0
52343;BME280;38277;51.972;4.624;2023-03-04T03:58:22;102820.0;;;7.5;64.0
52343;BME280;38277;51.972;4.624;2023-03-04T04:02:45;102840.0;;;7.5;64.0
52343;BME280;38277;51.972;4.624;2023-03-04T04:07:15;102830.0;;;7.5;64.0
52343;BME280;38277;51.972;4.624;2023-03-04T04:11:59;102840.0;;;7.5;64.0
52343;BME280;38277;51.972;4.624;2023-03-04T04:16:15;102850.0;;;7.5;64.0
52343;BME280;38277;51.972;4.624;2023-03-04T04:20:46;102840.0;;;7.5;64.5
52343;BME280;38277;51.972;4.624;2023-03-04T04:25:32;102840.0;;;7.5;64.5
52343;BME280;38277;51.972;4.624;2023-03-04T04:29:55;102830.0;;;7.5;64.5
52343;BME280;38277;51.972;4.624;2023-03-04T04:34:26;102840.0;;;7.5;64.5
52343;BME280;38277;51.972;4.624;2023-03-04T04:39:07;102840.0;;;7.4;64.5
52343;BME280;38277;51.972;4.624;2023-03-04T04:43:12;102840.0;;;7.4;64.5
52343;BME280;38277;51.972;4.624;2023-03-04T04:47:46;102840.0;;;7.4;64.0
52343;BME280;38277;51.972;4.624;2023-03-04T04:52:37;102840.0;;;7.4;64.0
52343;BME280;38277;51.972;4.624;2023-03-04T04:56:41;102850.0;;;7.4;64.0
52343;BME280;38277;51.972;4.624;2023-03-04T05:01:20;102850.0;;;7.3;64.0
52343;BME280;38277;51.972;4.624;2023-03-04T05:05:54;102840.0;;;7.3;64.0
52343;BME280;38277;51.972;4.624;2023-03-04T05:10:31;102850.0;;;7.3;64.0
52343;BME280;38277;51.972;4.624;2023-03-04T05:14:49;102850.0;;;7.3;64.0
52343;BME280;38277;51.972;4.624;2023-03-04T05:19:08;102850.0;;;7.4;64.5
52343;BME280;38277;51.972;4.624;2023-03-04T05:23:54;102840.0;;;7.4;64.5
52343;BME280;38277;51.972;4.624;2023-03-04T05:28:11;102840.0;;;7.4;64.5
52343;BME280;38277;51.972;4.624;2023-03-04T05:33:00;102850.0;;;7.4;64.5
52343;BME280;38277;51.972;4.624;2023-03-04T05:37:19;102850.0;;;7.4;65.0
52343;BME280;38277;51.972;4.624;2023-03-04T05:41:56;102850.0;;;7.4;65.0
52343;BME280;38277;51.972;4.624;2023-03-04T05:46:14;102850.0;;;7.4;65.5
52343;BME280;38277;51.972;4.624;2023-03-04T05:51:01;102850.0;;;7.4;65.5
52343;BME280;38277;51.972;4.624;2023-03-04T05:55:15;102840.0;;;7.3;66.0
52343;BME280;38277;51.972;4.624;2023-03-04T06:00:01;102840.0;;;7.3;66.5
52343;BME280;38277;51.972;4.624;2023-03-04T06:04:24;102840.0;;;7.3;67.0
52343;BME280;38277;51.972;4.624;2023-03-04T06:08:51;102840.0;;;7.3;67.0
52343;BME280;38277;51.972;4.624;2023-03-04T06:13:37;102840.0;;;7.3;67.5
52343;BME280;38277;51.972;4.624;2023-03-04T06:17:47;102840.0;;;7.3;67.5
52343;BME280;38277;51.972;4.624;2023-03-04T06:22:22;102830.0;;;7.3;67.5
52343;BME280;38277;51.972;4.624;2023-03-04T06:26:55;102840.0;;;7.3;68.0
52343;BME280;38277;51.972;4.624;2023-03-04T06:31:25;102850.0;;;7.3;68.0
52343;BME280;38277;51.972;4.624;2023-03-04T06:36:00;102860.0;;;7.4;68.0
52343;BME280;38277;51.972;4.624;2023-03-04T06:40:37;102850.0;;;7.4;68.0
52343;BME280;38277;51.972;4.624;2023-03-04T06:44:57;102850.0;;;7.4;68.0
52343;BME280;38277;51.972;4.624;2023-03-04T06:49:22;102850.0;;;7.4;68.0
52343;BME280;38277;51.972;4.624;2023-03-04T06:53:53;102850.0;;;7.5;68.0
52343;BME280;38277;51.972;4.624;2023-03-04T06:58:21;102860.0;;;7.5;68.0
52343;BME280;38277;51.972;4.624;2023-03-04T07:02:44;102860.0;;;7.5;68.0
52343;BME280;38277;51.972;4.624;2023-03-04T07:11:50;102870.0;;;7.6;68.5
52343;BME280;38277;51.972;4.624;2023-03-04T07:16:29;102870.0;;;7.6;68.5
52343;BME280;38277;51.972;4.624;2023-03-04T07:20:50;102860.0;;;7.6;68.5
52343;BME280;38277;51.972;4.624;2023-03-04T07:25:13;102880.0;;;7.7;68.5
52343;BME280;38277;51.972;4.624;2023-03-04T07:30:00;102880.0;;;7.7;68.5
52343;BME280;38277;51.972;4.624;2023-03-04T07:34:21;102880.0;;;7.8;69.0
52343;BME280;38277;51.972;4.624;2023-03-04T07:38:44;102890.0;;;7.8;69.5
52343;BME280;38277;51.972;4.624;2023-03-04T07:47:44;102890.0;;;7.8;70.5
52343;BME280;38277;51.972;4.624;2023-03-04T07:52:36;102890.0;;;7.8;71.0
52343;BME280;38277;51.972;4.624;2023-03-04T07:56:51;102900.0;;;7.9;71.0
52343;BME280;38277;51.972;4.624;2023-03-04T08:01:21;102910.0;;;7.9;71.0
52343;BME280;38277;51.972;4.624;2023-03-04T08:05:52;102910.0;;;8.0;71.0
52343;BME280;38277;51.972;4.624;2023-03-04T08:10:23;102900.0;;;8.0;71.5
52343;BME280;38277;51.972;4.624;2023-03-04T08:15:00;102900.0;;;8.2;71.5
52343;BME280;38277;51.972;4.624;2023-03-04T08:19:18;102910.0;;;8.3;71.0
52343;BME280;38277;51.972;4.624;2023-03-04T08:24:03;102900.0;;;8.4;70.5
52343;BME280;38277;51.972;4.624;2023-03-04T08:28:13;102900.0;;;8.5;70.5
52343;BME280;38277;51.972;4.624;2023-03-04T08:32:46;102900.0;;;8.6;70.5
52343;BME280;38277;51.972;4.624;2023-03-04T08:37:26;102900.0;;;8.7;70.5
52343;BME280;38277;51.972;4.624;2023-03-04T08:41:49;102900.0;;;8.8;70.0
52343;BME280;38277;51.972;4.624;2023-03-04T08:46:24;102890.0;;;8.9;70.0
52343;BME280;38277;51.972;4.624;2023-03-04T08:50:49;102890.0;;;9.1;70.0
52343;BME280;38277;51.972;4.624;2023-03-04T08:55:32;102890.0;;;9.2;69.5
52343;BME280;38277;51.972;4.624;2023-03-04T08:59:54;102890.0;;;9.3;69.0
52343;BME280;38277;51.972;4.624;2023-03-04T09:04:31;102880.0;;;9.5;68.5
52343;BME280;38277;51.972;4.624;2023-03-04T09:08:55;102880.0;;;9.6;67.5
52343;BME280;38277;51.972;4.624;2023-03-04T09:13:32;102880.0;;;9.5;69.0
52343;BME280;38277;51.972;4.624;2023-03-04T09:17:51;102880.0;;;9.4;69.5
52343;BME280;38277;51.972;4.624;2023-03-04T09:22:10;102870.0;;;9.3;70.0
52343;BME280;38277;51.972;4.624;2023-03-04T09:27:05;102880.0;;;9.3;71.0
52343;BME280;38277;51.972;4.624;2023-03-04T09:31:29;102880.0;;;9.5;71.5
52343;BME280;38277;51.972;4.624;2023-03-04T09:36:05;102880.0;;;9.7;71.0
52343;BME280;38277;51.972;4.624;2023-03-04T09:40:18;102870.0;;;9.8;70.5
52343;BME280;38277;51.972;4.624;2023-03-04T09:44:52;102870.0;;;9.8;70.0
52343;BME280;38277;51.972;4.624;2023-03-04T09:49:23;102870.0;;;9.7;70.0
52343;BME280;38277;51.972;4.624;2023-03-04T09:54:09;102870.0;;;9.7;70.5
52343;BME280;38277;51.972;4.624;2023-03-04T10:03:16;102870.0;;;9.6;71.0
52343;BME280;38277;51.972;4.624;2023-03-04T10:07:34;102890.0;;;9.7;72.0
52343;BME280;38277;51.972;4.624;2023-03-04T10:11:44;102870.0;;;9.8;72.5
52343;BME280;38277;51.972;4.624;2023-03-04T10:21:00;102870.0;;;9.8;72.5
52343;BME280;38277;51.972;4.624;2023-03-04T10:25:18;102870.0;;;9.8;73.5
52343;BME280;38277;51.972;4.624;2023-03-04T10:29:50;102870.0;;;9.7;73.5
52343;BME280;38277;51.972;4.624;2023-03-04T10:39:04;102870.0;;;9.7;75.0
52343;BME280;38277;51.972;4.624;2023-03-04T10:43:14;102870.0;;;10.1;75.0
52343;BME280;38277;51.972;4.624;2023-03-04T10:48:05;102860.0;;;10.3;73.0
52343;BME280;38277;51.972;4.624;2023-03-04T10:52:30;102850.0;;;10.4;71.5
52343;BME280;38277;51.972;4.624;2023-03-04T10:57:13;102850.0;;;10.8;69.0
52343;BME280;38277;51.972;4.624;2023-03-04T11:01:27;102850.0;;;11.2;68.0
52343;BME280;38277;51.972;4.624;2023-03-04T11:05:39;102840.0;;;11.4;66.5
52343;BME280;38277;51.972;4.624;2023-03-04T11:14:51;102840.0;;;11.1;64.5
52343;BME280;38277;51.972;4.624;2023-03-04T11:19:19;102830.0;;;11.0;64.5
52343;BME280;38277;51.972;4.624;2023-03-04T11:23:56;102830.0;;;11.1;64.0
52343;BME280;38277;51.972;4.624;2023-03-04T11:28:19;102830.0;;;10.9;66.0
52343;BME280;38277;51.972;4.624;2023-03-04T11:33:09;102840.0;;;10.8;67.5
52343;BME280;38277;51.972;4.624;2023-03-04T11:37:25;102830.0;;;10.8;67.0
52343;BME280;38277;51.972;4.624;2023-03-04T11:42:16;102820.0;;;11.0;66.0
52343;BME280;38277;51.972;4.624;2023-03-04T11:47:06;102810.0;;;11.3;65.0
52343;BME280;38277;51.972;4.624;2023-03-04T11:51:27;102810.0;;;11.6;63.5
52343;BME280;38277;51.972;4.624;2023-03-04T11:56:08;102810.0;;;11.6;63.0
52343;BME280;38277;51.972;4.624;2023-03-04T12:00:37;102820.0;;;11.5;64.0
52343;BME280;38277;51.972;4.624;2023-03-04T12:08:02;102810.0;;;11.1;67.0
52343;BME280;38277;51.972;4.624;2023-03-04T12:10:13;102810.0;;;10.8;69.5
52343;BME280;38277;51.972;4.624;2023-03-04T12:15:01;102800.0;;;11.0;70.5
52343;BME280;38277;51.972;4.624;2023-03-04T12:19:26;102800.0;;;11.4;68.0
52343;BME280;38277;51.972;4.624;2023-03-04T12:25:04;102780.0;;;12.2;67.0
52343;BME280;38277;51.972;4.624;2023-03-04T12:28:37;102770.0;;;15.6;57.5
52343;BME280;38277;51.972;4.624;2023-03-04T12:32:22;102760.0;;;17.6;51.0
52343;BME280;38277;51.972;4.624;2023-03-04T12:38:11;102750.0;;;18.8;47.0
52343;BME280;38277;51.972;4.624;2023-03-04T12:42:49;102740.0;;;18.7;44.5
52343;BME280;38277;51.972;4.624;2023-03-04T12:45:17;102740.0;;;17.1;46.5
52343;BME280;38277;51.972;4.624;2023-03-04T12:49:39;102740.0;;;15.5;49.5
52343;BME280;38277;51.972;4.624;2023-03-04T12:54:38;102740.0;;;15.1;50.5
52343;BME280;38277;51.972;4.624;2023-03-04T12:58:28;102730.0;;;14.4;52.0
52343;BME280;38277;51.972;4.624;2023-03-04T13:07:57;102730.0;;;13.1;52.0
52343;BME280;38277;51.972;4.624;2023-03-04T13:12:13;102730.0;;;12.5;53.5
52343;BME280;38277;51.972;4.624;2023-03-04T13:16:33;102730.0;;;12.3;54.5
52343;BME280;38277;51.972;4.624;2023-03-04T13:21:06;102720.0;;;11.9;55.5
52343;BME280;38277;51.972;4.624;2023-03-04T13:25:34;102720.0;;;11.5;57.0
52343;BME280;38277;51.972;4.624;2023-03-04T13:29:44;102720.0;;;11.3;58.0
52343;BME280;38277;51.972;4.624;2023-03-04T13:34:43;102710.0;;;11.2;58.5
52343;BME280;38277;51.972;4.624;2023-03-04T13:43:25;102710.0;;;11.8;60.0
52343;BME280;38277;51.972;4.624;2023-03-04T13:47:43;102690.0;;;14.4;53.0
52343;BME280;38277;51.972;4.624;2023-03-04T13:52:41;102700.0;;;14.6;49.0
52343;BME280;38277;51.972;4.624;2023-03-04T13:57:10;102700.0;;;13.7;49.5
52343;BME280;38277;51.972;4.624;2023-03-04T14:01:26;102680.0;;;14.0;50.0
52343;BME280;38277;51.972;4.624;2023-03-04T14:06:09;102690.0;;;14.3;49.0
52343;BME280;38277;51.972;4.624;2023-03-04T14:10:26;102680.0;;;15.4;48.0
52343;BME280;38277;51.972;4.624;2023-03-04T14:19:35;102660.0;;;19.0;38.0
52343;BME280;38277;51.972;4.624;2023-03-04T14:23:59;102660.0;;;19.6;37.0
52343;BME280;38277;51.972;4.624;2023-03-04T14:28:18;102660.0;;;18.6;37.5
52343;BME280;38277;51.972;4.624;2023-03-04T14:32:51;102680.0;;;16.6;41.0
52343;BME280;38277;51.972;4.624;2023-03-04T14:37:34;102680.0;;;14.8;45.5
52343;BME280;38277;51.972;4.624;2023-03-04T14:41:40;102670.0;;;13.3;50.0
52343;BME280;38277;51.972;4.624;2023-03-04T14:46:19;102670.0;;;12.3;52.0
52343;BME280;38277;51.972;4.624;2023-03-04T14:55:36;102670.0;;;11.3;54.5
52343;BME280;38277;51.972;4.624;2023-03-04T14:59:52;102660.0;;;11.1;56.0
52343;BME280;38277;51.972;4.624;2023-03-04T15:04:19;102670.0;;;12.1;55.0
52343;BME280;38277;51.972;4.624;2023-03-04T15:09:04;102660.0;;;12.8;49.5
52343;BME280;38277;51.972;4.624;2023-03-04T15:13:36;102660.0;;;12.5;48.5
52343;BME280;38277;51.972;4.624;2023-03-04T15:17:56;102660.0;;;12.0;49.5
52343;BME280;38277;51.972;4.624;2023-03-04T15:22:17;102650.0;;;11.5;51.0
52343;BME280;38277;51.972;4.624;2023-03-04T15:31:36;102650.0;;;10.9;52.0
52343;BME280;38277;51.972;4.624;2023-03-04T15:35:57;102650.0;;;10.6;52.5
52343;BME280;38277;51.972;4.624;2023-03-04T15:40:38;102650.0;;;10.4;53.5
52343;BME280;38277;51.972;4.624;2023-03-04T15:44:50;102650.0;;;10.2;54.0
52343;BME280;38277;51.972;4.624;2023-03-04T15:49:14;102650.0;;;10.1;55.0
52343;BME280;38277;51.972;4.624;2023-03-04T15:53:45;102650.0;;;9.9;55.5
52343;BME280;38277;51.972;4.624;2023-03-04T15:58:33;102640.0;;;9.8;56.5
52343;BME280;38277;51.972;4.624;2023-03-04T16:07:23;102640.0;;;9.8;58.0
52343;BME280;38277;51.972;4.624;2023-03-04T16:11:54;102640.0;;;9.7;58.0
52343;BME280;38277;51.972;4.624;2023-03-04T16:16:12;102630.0;;;9.6;58.0
52343;BME280;38277;51.972;4.624;2023-03-04T16:20:43;102640.0;;;9.6;58.5
52343;BME280;38277;51.972;4.624;2023-03-04T16:25:20;102640.0;;;9.6;59.0
52343;BME280;38277;51.972;4.624;2023-03-04T16:30:20;102640.0;;;9.5;59.5
52343;BME280;38277;51.972;4.624;2023-03-04T16:35:13;102640.0;;;9.3;59.5
52343;BME280;38277;51.972;4.624;2023-03-04T16:40:12;102630.0;;;9.3;60.0
52343;BME280;38277;51.972;4.624;2023-03-04T16:47:43;102630.0;;;9.1;60.0
52343;BME280;38277;51.972;4.624;2023-03-04T16:52:41;102640.0;;;9.0;60.0
52343;BME280;38277;51.972;4.624;2023-03-04T16:59:16;102630.0;;;9.0;60.5
52343;BME280;38277;51.972;4.624;2023-03-04T17:02:31;102630.0;;;8.9;61.0
52343;BME280;38277;51.972;4.624;2023-03-04T17:10:30;102620.0;;;8.8;62.5
52343;BME280;38277;51.972;4.624;2023-03-04T17:15:26;102640.0;;;8.7;63.0
52343;BME280;38277;51.972;4.624;2023-03-04T17:20:22;102630.0;;;8.6;63.5
52343;BME280;38277;51.972;4.624;2023-03-04T17:25:18;102640.0;;;8.5;64.0
52343;BME280;38277;51.972;4.624;2023-03-04T17:32:52;102660.0;;;8.3;64.5
52343;BME280;38277;51.972;4.624;2023-03-04T17:37:49;102660.0;;;8.3;65.0
52343;BME280;38277;51.972;4.624;2023-03-04T17:44:23;102660.0;;;8.2;65.5
52343;BME280;38277;51.972;4.624;2023-03-04T17:47:40;102670.0;;;8.2;65.5
52343;BME280;38277;51.972;4.624;2023-03-04T17:55:10;102680.0;;;8.2;66.0
52343;BME280;38277;51.972;4.624;2023-03-04T18:00:07;102670.0;;;8.1;66.0
52343;BME280;38277;51.972;4.624;2023-03-04T18:06:41;102690.0;;;8.1;66.5
52343;BME280;38277;51.972;4.624;2023-03-04T18:09:58;102680.0;;;8.1;66.5
52343;BME280;38277;51.972;4.624;2023-03-04T18:14:54;102690.0;;;8.1;67.0
52343;BME280;38277;51.972;4.624;2023-03-04T18:22:32;102680.0;;;8.0;67.5
52343;BME280;38277;51.972;4.624;2023-03-04T18:26:50;102690.0;;;8.0;67.5
52343;BME280;38277;51.972;4.624;2023-03-04T18:31:31;102690.0;;;8.0;68.0
52343;BME280;38277;51.972;4.624;2023-03-04T18:36:04;102680.0;;;8.0;68.5
52343;BME280;38277;51.972;4.624;2023-03-04T18:40:08;102680.0;;;8.0;69.5
52343;BME280;38277;51.972;4.624;2023-03-04T18:45:04;102670.0;;;7.9;70.0
52343;BME280;38277;51.972;4.624;2023-03-04T18:49:24;102670.0;;;7.9;70.0
52343;BME280;38277;51.972;4.624;2023-03-04T18:53:44;102670.0;;;7.9;70.5
52343;BME280;38277;51.972;4.624;2023-03-04T18:58:25;102670.0;;;7.9;70.5
52343;BME280;38277;51.972;4.624;2023-03-04T19:03:11;102660.0;;;7.9;70.5
52343;BME280;38277;51.972;4.624;2023-03-04T19:07:30;102650.0;;;7.9;71.0
52343;BME280;38277;51.972;4.624;2023-03-04T19:11:51;102650.0;;;7.9;71.0
52343;BME280;38277;51.972;4.624;2023-03-04T19:16:09;102650.0;;;7.9;70.5
52343;BME280;38277;51.972;4.624;2023-03-04T19:20:52;102640.0;;;7.9;70.5
52343;BME280;38277;51.972;4.624;2023-03-04T19:25:21;102640.0;;;7.9;70.5
52343;BME280;38277;51.972;4.624;2023-03-04T19:29:41;102650.0;;;7.9;71.0
52343;BME280;38277;51.972;4.624;2023-03-04T19:34:18;102650.0;;;7.8;70.5
52343;BME280;38277;51.972;4.624;2023-03-04T19:38:47;102650.0;;;7.8;69.5
52343;BME280;38277;51.972;4.624;2023-03-04T19:43:28;102650.0;;;7.6;68.5
52343;BME280;38277;51.972;4.624;2023-03-04T19:47:42;102660.0;;;7.6;68.0
52343;BME280;38277;51.972;4.624;2023-03-04T19:52:11;102660.0;;;7.4;67.5
52343;BME280;38277;51.972;4.624;2023-03-04T19:57:01;102660.0;;;7.4;67.5
52343;BME280;38277;51.972;4.624;2023-03-04T20:01:29;102670.0;;;7.4;67.5
52343;BME280;38277;51.972;4.624;2023-03-04T20:05:38;102660.0;;;7.3;67.0
52343;BME280;38277;51.972;4.624;2023-03-04T20:11:11;102660.0;;;7.3;67.0
52343;BME280;38277;51.972;4.624;2023-03-04T20:14:48;102660.0;;;7.3;67.0
52343;BME280;38277;51.972;4.624;2023-03-04T20:19:24;102660.0;;;7.3;67.5
52343;BME280;38277;51.972;4.624;2023-03-04T20:23:51;102660.0;;;7.3;67.5
52343;BME280;38277;51.972;4.624;2023-03-04T20:28:13;102650.0;;;7.2;67.5
52343;BME280;38277;51.972;4.624;2023-03-04T20:32:55;102660.0;;;7.1;67.0
52343;BME280;38277;51.972;4.624;2023-03-04T20:37:21;102650.0;;;7.1;67.0
52343;BME280;38277;51.972;4.624;2023-03-04T20:42:00;102650.0;;;7.0;67.0
52343;BME280;38277;51.972;4.624;2023-03-04T20:46:43;102650.0;;;6.8;67.5
52343;BME280;38277;51.972;4.624;2023-03-04T20:50:43;102650.0;;;6.8;67.5
52343;BME280;38277;51.972;4.624;2023-03-04T20:55:23;102650.0;;;6.7;68.0
52343;BME280;38277;51.972;4.624;2023-03-04T20:59:58;102650.0;;;6.7;68.5
52343;BME280;38277;51.972;4.624;2023-03-04T21:04:30;102640.0;;;6.6;69.0
52343;BME280;38277;51.972;4.624;2023-03-04T21:08:42;102640.0;;;6.6;69.5
52343;BME280;38277;51.972;4.624;2023-03-04T21:13:17;102630.0;;;6.7;69.5
52343;BME280;38277;51.972;4.624;2023-03-04T21:18:27;102630.0;;;6.7;70.0
52343;BME280;38277;51.972;4.624;2023-03-04T21:22:36;102630.0;;;6.7;70.0
52343;BME280;38277;51.972;4.624;2023-03-04T21:26:45;102630.0;;;6.7;70.0
52343;BME280;38277;51.972;4.624;2023-03-04T21:31:17;102630.0;;;6.8;70.0
52343;BME280;38277;51.972;4.624;2023-03-04T21:35:50;102630.0;;;6.8;70.0
52343;BME280;38277;51.972;4.624;2023-03-04T21:40:18;102630.0;;;6.8;70.0
52343;BME280;38277;51.972;4.624;2023-03-04T21:45:06;102640.0;;;6.9;70.0
52343;BME280;38277;51.972;4.624;2023-03-04T21:49:29;102630.0;;;6.9;70.5
52343;BME280;38277;51.972;4.624;2023-03-04T21:53:44;102630.0;;;6.9;70.5
52343;BME280;38277;51.972;4.624;2023-03-04T21:58:19;102630.0;;;6.9;70.5
52343;BME280;38277;51.972;4.624;2023-03-04T22:02:59;102620.0;;;6.9;70.5
52343;BME280;38277;51.972;4.624;2023-03-04T22:07:16;102600.0;;;6.9;70.5
52343;BME280;38277;51.972;4.624;2023-03-04T22:11:44;102600.0;;;6.9;70.5
52343;BME280;38277;51.972;4.624;2023-03-04T22:16:34;102610.0;;;6.9;70.5
52343;BME280;38277;51.972;4.624;2023-03-04T22:20:43;102600.0;;;6.9;70.0
52343;BME280;38277;51.972;4.624;2023-03-04T22:30:02;102590.0;;;6.9;69.5
52343;BME280;38277;51.972;4.624;2023-03-04T22:34:26;102590.0;;;6.8;70.0
52343;BME280;38277;51.972;4.624;2023-03-04T22:38:50;102580.0;;;6.7;69.5
52343;BME280;38277;51.972;4.624;2023-03-04T22:43:33;102580.0;;;6.6;70.0
52343;BME280;38277;51.972;4.624;2023-03-04T22:47:51;102590.0;;;6.6;70.0
52343;BME280;38277;51.972;4.624;2023-03-04T22:52:19;102590.0;;;6.6;70.0
52343;BME280;38277;51.972;4.624;2023-03-04T22:56:45;102580.0;;;6.5;70.0
52343;BME280;38277;51.972;4.624;2023-03-04T23:06:06;102580.0;;;6.4;70.0
52343;BME280;38277;51.972;4.624;2023-03-04T23:10:22;102590.0;;;6.3;70.5
52343;BME280;38277;51.972;4.624;2023-03-04T23:14:49;102580.0;;;6.2;70.5
52343;BME280;38277;51.972;4.624;2023-03-04T23:19:14;102570.0;;;6.1;70.5
52343;BME280;38277;51.972;4.624;2023-03-04T23:23:56;102560.0;;;6.1;71.0
52343;BME280;38277;51.972;4.624;2023-03-04T23:28:28;102550.0;;;6.1;71.0
52343;BME280;38277;51.972;4.624;2023-03-04T23:32:59;102550.0;;;6.1;71.0
52343;BME280;38277;51.972;4.624;2023-03-04T23:37:28;102550.0;;;6.1;71.0
52343;BME280;38277;51.972;4.624;2023-03-04T23:41:59;102540.0;;;6.1;71.0
52343;BME280;38277;51.972;4.624;2023-03-04T23:46:13;102550.0;;;6.0;71.0
52343;BME280;38277;51.972;4.624;2023-03-04T23:50:57;102540.0;;;5.9;71.0
52343;BME280;38277;51.972;4.624;2023-03-04T23:55:15;102530.0;;;5.8;71.0
